sensor_id;sensor_type;location;lat;lon;timestamp;P1;durP1;ratioP1;P2;durP2;ratioP2
13493;SDS011;6819;50.886;4.332;2023-10-09T00:02:07;10.48;;;5.97;;
13493;SDS011;6819;50.886;4.332;2023-10-09T00:04:33;11.05;;;5.95;;
13493;SDS011;6819;50.886;4.332;2023-10-09T00:07:02;9.55;;;5.90;;
13493;SDS011;6819;50.886;4.332;2023-10-09T00:09:28;15.60;;;5.93;;
13493;SDS011;6819;50.886;4.332;2023-10-09T00:11:57;12.48;;;5.88;;
13493;SDS011;6819;50.886;4.332;2023-10-09T00:14:29;11.25;;;5.95;;
13493;SDS011;6819;50.886;4.332;2023-10-09T00:16:58;13.65;;;6.63;;
13493;SDS011;6819;50.886;4.332;2023-10-09T00:19:43;13.40;;;6.30;;
13493;SDS011;6819;50.886;4.332;2023-10-09T00:22:09;12.35;;;6.10;;
13493;SDS011;6819;50.886;4.332;2023-10-09T00:24:44;12.02;;;6.15;;
13493;SDS011;6819;50.886;4.332;2023-10-09T00:27:11;15.20;;;5.95;;
13493;SDS011;6819;50.886;4.332;2023-10-09T00:29:40;12.13;;;6.18;;
13493;SDS011;6819;50.886;4.332;2023-10-09T00:32:10;12.50;;;5.38;;
13493;SDS011;6819;50.886;4.332;2023-10-09T00:34:52;9.80;;;5.97;;
13493;SDS011;6819;50.886;4.332;2023-10-09T00:37:23;13.50;;;5.68;;
13493;SDS011;6819;50.886;4.332;2023-10-09T00:39:50;15.45;;;5.90;;
13493;SDS011;6819;50.886;4.332;2023-10-09T00:42:26;10.90;;;5.60;;
13493;SDS011;6819;50.886;4.332;2023-10-09T00:44:57;10.93;;;5.47;;
13493;SDS011;6819;50.886;4.332;2023-10-09T00:47:32;10.02;;;5.28;;
13493;SDS011;6819;50.886;4.332;2023-10-09T00:50:08;10.52;;;5.53;;
13493;SDS011;6819;50.886;4.332;2023-10-09T00:52:40;12.60;;;5.50;;
13493;SDS011;6819;50.886;4.332;2023-10-09T00:55:31;14.75;;;6.53;;
13493;SDS011;6819;50.886;4.332;2023-10-09T00:58:11;14.70;;;6.43;;
13493;SDS011;6819;50.886;4.332;2023-10-09T01:00:39;12.73;;;5.55;;
13493;SDS011;6819;50.886;4.332;2023-10-09T01:03:08;15.10;;;6.53;;
13493;SDS011;6819;50.886;4.332;2023-10-09T01:05:51;9.90;;;5.43;;
13493;SDS011;6819;50.886;4.332;2023-10-09T01:08:25;10.02;;;5.72;;
13493;SDS011;6819;50.886;4.332;2023-10-09T01:11:15;10.32;;;5.20;;
13493;SDS011;6819;50.886;4.332;2023-10-09T01:13:49;12.35;;;5.78;;
13493;SDS011;6819;50.886;4.332;2023-10-09T01:16:15;10.98;;;5.47;;
13493;SDS011;6819;50.886;4.332;2023-10-09T01:18:45;12.65;;;6.22;;
13493;SDS011;6819;50.886;4.332;2023-10-09T01:21:15;12.40;;;6.13;;
13493;SDS011;6819;50.886;4.332;2023-10-09T01:23:42;12.27;;;5.25;;
13493;SDS011;6819;50.886;4.332;2023-10-09T01:28:58;12.90;;;5.63;;
13493;SDS011;6819;50.886;4.332;2023-10-09T01:31:25;12.30;;;5.80;;
13493;SDS011;6819;50.886;4.332;2023-10-09T01:33:58;13.20;;;6.03;;
13493;SDS011;6819;50.886;4.332;2023-10-09T01:36:27;12.50;;;5.40;;
13493;SDS011;6819;50.886;4.332;2023-10-09T01:39:00;12.80;;;6.40;;
13493;SDS011;6819;50.886;4.332;2023-10-09T01:41:33;13.88;;;6.18;;
13493;SDS011;6819;50.886;4.332;2023-10-09T01:43:59;12.82;;;6.50;;
13493;SDS011;6819;50.886;4.332;2023-10-09T01:46:35;13.93;;;5.20;;
13493;SDS011;6819;50.886;4.332;2023-10-09T01:49:01;13.63;;;6.47;;
13493;SDS011;6819;50.886;4.332;2023-10-09T01:51:34;15.20;;;6.47;;
13493;SDS011;6819;50.886;4.332;2023-10-09T01:54:03;11.05;;;6.20;;
13493;SDS011;6819;50.886;4.332;2023-10-09T01:56:29;13.07;;;6.43;;
13493;SDS011;6819;50.886;4.332;2023-10-09T01:58:56;13.82;;;6.53;;
13493;SDS011;6819;50.886;4.332;2023-10-09T02:01:27;15.57;;;7.38;;
13493;SDS011;6819;50.886;4.332;2023-10-09T02:03:53;10.55;;;6.53;;
13493;SDS011;6819;50.886;4.332;2023-10-09T02:06:19;14.32;;;6.72;;
13493;SDS011;6819;50.886;4.332;2023-10-09T02:08:57;13.75;;;6.57;;
13493;SDS011;6819;50.886;4.332;2023-10-09T02:11:24;12.38;;;6.32;;
13493;SDS011;6819;50.886;4.332;2023-10-09T02:14:06;15.43;;;6.35;;
13493;SDS011;6819;50.886;4.332;2023-10-09T02:16:47;16.27;;;6.72;;
13493;SDS011;6819;50.886;4.332;2023-10-09T02:19:32;12.10;;;6.00;;
13493;SDS011;6819;50.886;4.332;2023-10-09T02:22:03;16.17;;;6.43;;
13493;SDS011;6819;50.886;4.332;2023-10-09T02:24:39;12.18;;;5.97;;
13493;SDS011;6819;50.886;4.332;2023-10-09T02:27:23;12.45;;;5.90;;
13493;SDS011;6819;50.886;4.332;2023-10-09T02:30:09;13.15;;;6.70;;
13493;SDS011;6819;50.886;4.332;2023-10-09T02:32:45;13.60;;;5.88;;
13493;SDS011;6819;50.886;4.332;2023-10-09T02:35:17;19.08;;;6.93;;
13493;SDS011;6819;50.886;4.332;2023-10-09T02:38:07;13.32;;;6.65;;
13493;SDS011;6819;50.886;4.332;2023-10-09T02:40:39;12.90;;;6.18;;
13493;SDS011;6819;50.886;4.332;2023-10-09T02:43:25;16.17;;;6.55;;
13493;SDS011;6819;50.886;4.332;2023-10-09T02:45:51;10.82;;;5.65;;
13493;SDS011;6819;50.886;4.332;2023-10-09T02:48:18;14.50;;;6.18;;
13493;SDS011;6819;50.886;4.332;2023-10-09T02:50:46;13.38;;;6.47;;
13493;SDS011;6819;50.886;4.332;2023-10-09T02:53:12;16.83;;;6.90;;
13493;SDS011;6819;50.886;4.332;2023-10-09T02:55:44;12.57;;;6.40;;
13493;SDS011;6819;50.886;4.332;2023-10-09T02:58:29;13.40;;;6.60;;
13493;SDS011;6819;50.886;4.332;2023-10-09T03:00:57;10.20;;;5.88;;
13493;SDS011;6819;50.886;4.332;2023-10-09T03:03:23;15.48;;;6.03;;
13493;SDS011;6819;50.886;4.332;2023-10-09T03:05:50;16.23;;;6.45;;
13493;SDS011;6819;50.886;4.332;2023-10-09T03:08:16;15.63;;;7.03;;
13493;SDS011;6819;50.886;4.332;2023-10-09T03:10:44;17.52;;;6.72;;
13493;SDS011;6819;50.886;4.332;2023-10-09T03:13:10;14.75;;;7.00;;
13493;SDS011;6819;50.886;4.332;2023-10-09T03:15:36;11.30;;;6.18;;
13493;SDS011;6819;50.886;4.332;2023-10-09T03:18:04;11.65;;;6.28;;
13493;SDS011;6819;50.886;4.332;2023-10-09T03:20:33;14.63;;;6.65;;
13493;SDS011;6819;50.886;4.332;2023-10-09T03:22:59;12.85;;;7.20;;
13493;SDS011;6819;50.886;4.332;2023-10-09T03:25:26;16.70;;;6.65;;
13493;SDS011;6819;50.886;4.332;2023-10-09T03:27:53;15.52;;;7.13;;
13493;SDS011;6819;50.886;4.332;2023-10-09T03:30:21;14.77;;;7.60;;
13493;SDS011;6819;50.886;4.332;2023-10-09T03:32:48;17.05;;;7.15;;
13493;SDS011;6819;50.886;4.332;2023-10-09T03:35:18;13.30;;;7.13;;
13493;SDS011;6819;50.886;4.332;2023-10-09T03:37:54;16.20;;;7.57;;
13493;SDS011;6819;50.886;4.332;2023-10-09T03:40:22;15.60;;;7.80;;
13493;SDS011;6819;50.886;4.332;2023-10-09T03:42:48;17.23;;;7.35;;
13493;SDS011;6819;50.886;4.332;2023-10-09T03:45:14;17.92;;;7.82;;
13493;SDS011;6819;50.886;4.332;2023-10-09T03:47:50;13.18;;;7.30;;
13493;SDS011;6819;50.886;4.332;2023-10-09T03:50:21;15.57;;;7.38;;
13493;SDS011;6819;50.886;4.332;2023-10-09T03:52:52;14.80;;;8.00;;
13493;SDS011;6819;50.886;4.332;2023-10-09T03:55:20;15.30;;;7.43;;
13493;SDS011;6819;50.886;4.332;2023-10-09T03:57:47;16.17;;;8.00;;
13493;SDS011;6819;50.886;4.332;2023-10-09T04:00:13;18.52;;;7.85;;
13493;SDS011;6819;50.886;4.332;2023-10-09T04:02:41;15.10;;;8.18;;
13493;SDS011;6819;50.886;4.332;2023-10-09T04:05:07;19.08;;;7.43;;
13493;SDS011;6819;50.886;4.332;2023-10-09T04:07:33;15.60;;;7.57;;
13493;SDS011;6819;50.886;4.332;2023-10-09T04:10:00;14.07;;;7.45;;
13493;SDS011;6819;50.886;4.332;2023-10-09T04:12:49;17.08;;;7.95;;
13493;SDS011;6819;50.886;4.332;2023-10-09T04:15:18;16.95;;;8.00;;
13493;SDS011;6819;50.886;4.332;2023-10-09T04:17:48;14.30;;;7.22;;
13493;SDS011;6819;50.886;4.332;2023-10-09T04:20:16;19.63;;;8.30;;
13493;SDS011;6819;50.886;4.332;2023-10-09T04:22:42;15.18;;;7.68;;
13493;SDS011;6819;50.886;4.332;2023-10-09T04:25:19;13.27;;;7.95;;
13493;SDS011;6819;50.886;4.332;2023-10-09T04:27:55;15.93;;;7.50;;
13493;SDS011;6819;50.886;4.332;2023-10-09T04:30:40;13.20;;;7.82;;
13493;SDS011;6819;50.886;4.332;2023-10-09T04:33:14;14.73;;;7.82;;
13493;SDS011;6819;50.886;4.332;2023-10-09T04:36:10;14.45;;;7.57;;
13493;SDS011;6819;50.886;4.332;2023-10-09T04:41:30;23.60;;;8.13;;
13493;SDS011;6819;50.886;4.332;2023-10-09T04:44:19;15.70;;;8.15;;
13493;SDS011;6819;50.886;4.332;2023-10-09T04:46:54;19.48;;;8.73;;
13493;SDS011;6819;50.886;4.332;2023-10-09T04:49:38;19.55;;;8.27;;
13493;SDS011;6819;50.886;4.332;2023-10-09T04:52:14;22.27;;;8.18;;
13493;SDS011;6819;50.886;4.332;2023-10-09T04:54:45;17.83;;;8.02;;
13493;SDS011;6819;50.886;4.332;2023-10-09T04:57:30;14.52;;;8.32;;
13493;SDS011;6819;50.886;4.332;2023-10-09T05:00:03;16.25;;;8.75;;
13493;SDS011;6819;50.886;4.332;2023-10-09T05:02:32;15.90;;;8.10;;
13493;SDS011;6819;50.886;4.332;2023-10-09T05:05:02;17.05;;;8.52;;
13493;SDS011;6819;50.886;4.332;2023-10-09T05:08:00;16.27;;;8.48;;
13493;SDS011;6819;50.886;4.332;2023-10-09T05:10:43;16.83;;;8.45;;
13493;SDS011;6819;50.886;4.332;2023-10-09T05:13:19;17.70;;;9.50;;
13493;SDS011;6819;50.886;4.332;2023-10-09T05:18:32;15.88;;;8.70;;
13493;SDS011;6819;50.886;4.332;2023-10-09T05:21:02;19.40;;;9.05;;
13493;SDS011;6819;50.886;4.332;2023-10-09T05:23:37;18.92;;;9.90;;
13493;SDS011;6819;50.886;4.332;2023-10-09T05:26:23;17.58;;;8.68;;
13493;SDS011;6819;50.886;4.332;2023-10-09T05:29:08;17.05;;;8.93;;
13493;SDS011;6819;50.886;4.332;2023-10-09T05:31:53;14.10;;;8.97;;
13493;SDS011;6819;50.886;4.332;2023-10-09T05:34:28;15.90;;;8.95;;
13493;SDS011;6819;50.886;4.332;2023-10-09T05:37:13;16.65;;;8.85;;
13493;SDS011;6819;50.886;4.332;2023-10-09T05:40:03;17.10;;;9.30;;
13493;SDS011;6819;50.886;4.332;2023-10-09T05:42:41;14.13;;;8.65;;
13493;SDS011;6819;50.886;4.332;2023-10-09T05:45:08;15.60;;;8.65;;
13493;SDS011;6819;50.886;4.332;2023-10-09T05:47:53;15.20;;;8.70;;
13493;SDS011;6819;50.886;4.332;2023-10-09T05:50:28;18.10;;;9.25;;
13493;SDS011;6819;50.886;4.332;2023-10-09T05:53:03;17.60;;;8.63;;
13493;SDS011;6819;50.886;4.332;2023-10-09T05:55:31;22.13;;;9.15;;
13493;SDS011;6819;50.886;4.332;2023-10-09T05:58:16;19.25;;;8.57;;
13493;SDS011;6819;50.886;4.332;2023-10-09T06:01:01;17.73;;;9.13;;
13493;SDS011;6819;50.886;4.332;2023-10-09T06:03:50;17.00;;;9.10;;
13493;SDS011;6819;50.886;4.332;2023-10-09T06:06:19;17.30;;;8.52;;
13493;SDS011;6819;50.886;4.332;2023-10-09T06:09:04;18.08;;;9.43;;
13493;SDS011;6819;50.886;4.332;2023-10-09T06:11:40;20.02;;;9.52;;
13493;SDS011;6819;50.886;4.332;2023-10-09T06:14:14;16.73;;;9.47;;
13493;SDS011;6819;50.886;4.332;2023-10-09T06:16:50;21.85;;;8.57;;
13493;SDS011;6819;50.886;4.332;2023-10-09T06:19:22;21.98;;;8.75;;
13493;SDS011;6819;50.886;4.332;2023-10-09T06:21:53;17.27;;;9.30;;
13493;SDS011;6819;50.886;4.332;2023-10-09T06:24:29;21.85;;;9.23;;
13493;SDS011;6819;50.886;4.332;2023-10-09T06:27:06;19.65;;;9.77;;
13493;SDS011;6819;50.886;4.332;2023-10-09T06:29:32;22.02;;;9.50;;
13493;SDS011;6819;50.886;4.332;2023-10-09T06:32:02;18.80;;;8.43;;
13493;SDS011;6819;50.886;4.332;2023-10-09T06:34:46;17.25;;;9.27;;
13493;SDS011;6819;50.886;4.332;2023-10-09T06:37:22;17.08;;;9.38;;
13493;SDS011;6819;50.886;4.332;2023-10-09T06:39:51;19.80;;;9.32;;
13493;SDS011;6819;50.886;4.332;2023-10-09T06:42:27;21.42;;;9.70;;
13493;SDS011;6819;50.886;4.332;2023-10-09T06:45:02;18.52;;;8.95;;
13493;SDS011;6819;50.886;4.332;2023-10-09T06:47:33;17.90;;;9.57;;
13493;SDS011;6819;50.886;4.332;2023-10-09T06:50:12;17.00;;;9.27;;
13493;SDS011;6819;50.886;4.332;2023-10-09T06:52:50;17.65;;;9.63;;
13493;SDS011;6819;50.886;4.332;2023-10-09T06:55:25;16.95;;;7.28;;
13493;SDS011;6819;50.886;4.332;2023-10-09T06:58:13;18.20;;;8.98;;
13493;SDS011;6819;50.886;4.332;2023-10-09T07:00:41;19.02;;;10.00;;
13493;SDS011;6819;50.886;4.332;2023-10-09T07:03:39;18.42;;;9.57;;
13493;SDS011;6819;50.886;4.332;2023-10-09T07:06:26;21.05;;;9.38;;
13493;SDS011;6819;50.886;4.332;2023-10-09T07:08:55;13.48;;;7.07;;
13493;SDS011;6819;50.886;4.332;2023-10-09T07:11:33;27.88;;;10.20;;
13493;SDS011;6819;50.886;4.332;2023-10-09T07:14:09;16.42;;;9.15;;
13493;SDS011;6819;50.886;4.332;2023-10-09T07:16:56;15.02;;;9.07;;
13493;SDS011;6819;50.886;4.332;2023-10-09T07:19:22;18.33;;;8.20;;
13493;SDS011;6819;50.886;4.332;2023-10-09T07:22:07;19.85;;;9.15;;
13493;SDS011;6819;50.886;4.332;2023-10-09T07:24:48;23.55;;;9.13;;
13493;SDS011;6819;50.886;4.332;2023-10-09T07:27:18;18.20;;;9.57;;
13493;SDS011;6819;50.886;4.332;2023-10-09T07:30:04;21.95;;;9.68;;
13493;SDS011;6819;50.886;4.332;2023-10-09T07:32:50;17.80;;;9.57;;
13493;SDS011;6819;50.886;4.332;2023-10-09T07:35:19;18.50;;;9.13;;
13493;SDS011;6819;50.886;4.332;2023-10-09T07:38:05;17.02;;;8.95;;
13493;SDS011;6819;50.886;4.332;2023-10-09T07:40:34;16.88;;;9.80;;
13493;SDS011;6819;50.886;4.332;2023-10-09T07:43:17;20.77;;;9.93;;
13493;SDS011;6819;50.886;4.332;2023-10-09T07:45:43;21.33;;;9.60;;
13493;SDS011;6819;50.886;4.332;2023-10-09T07:48:32;16.10;;;9.45;;
13493;SDS011;6819;50.886;4.332;2023-10-09T07:51:13;18.60;;;9.93;;
13493;SDS011;6819;50.886;4.332;2023-10-09T07:53:40;18.92;;;10.20;;
13493;SDS011;6819;50.886;4.332;2023-10-09T07:56:09;16.60;;;9.27;;
13493;SDS011;6819;50.886;4.332;2023-10-09T07:58:38;17.33;;;9.40;;
13493;SDS011;6819;50.886;4.332;2023-10-09T08:03:59;16.73;;;9.32;;
13493;SDS011;6819;50.886;4.332;2023-10-09T08:06:39;15.82;;;9.30;;
13493;SDS011;6819;50.886;4.332;2023-10-09T08:09:07;18.52;;;9.75;;
13493;SDS011;6819;50.886;4.332;2023-10-09T08:11:43;17.65;;;10.02;;
13493;SDS011;6819;50.886;4.332;2023-10-09T08:14:10;20.25;;;9.95;;
13493;SDS011;6819;50.886;4.332;2023-10-09T08:16:54;20.85;;;10.43;;
13493;SDS011;6819;50.886;4.332;2023-10-09T08:19:46;21.58;;;10.20;;
13493;SDS011;6819;50.886;4.332;2023-10-09T08:22:36;18.38;;;9.43;;
13493;SDS011;6819;50.886;4.332;2023-10-09T08:25:15;21.00;;;10.68;;
13493;SDS011;6819;50.886;4.332;2023-10-09T08:28:10;20.73;;;10.15;;
13493;SDS011;6819;50.886;4.332;2023-10-09T08:30:39;21.20;;;10.20;;
13493;SDS011;6819;50.886;4.332;2023-10-09T08:33:20;22.55;;;11.10;;
13493;SDS011;6819;50.886;4.332;2023-10-09T08:35:53;21.83;;;11.52;;
13493;SDS011;6819;50.886;4.332;2023-10-09T08:38:29;21.88;;;10.68;;
13493;SDS011;6819;50.886;4.332;2023-10-09T08:41:11;21.13;;;10.57;;
13493;SDS011;6819;50.886;4.332;2023-10-09T08:43:51;23.23;;;9.98;;
13493;SDS011;6819;50.886;4.332;2023-10-09T08:46:22;20.98;;;10.55;;
13493;SDS011;6819;50.886;4.332;2023-10-09T08:48:48;22.17;;;10.13;;
13493;SDS011;6819;50.886;4.332;2023-10-09T08:51:16;25.00;;;10.13;;
13493;SDS011;6819;50.886;4.332;2023-10-09T08:53:43;22.65;;;10.57;;
13493;SDS011;6819;50.886;4.332;2023-10-09T08:56:11;18.83;;;9.45;;
13493;SDS011;6819;50.886;4.332;2023-10-09T08:58:40;17.75;;;9.95;;
13493;SDS011;6819;50.886;4.332;2023-10-09T09:01:06;24.65;;;10.50;;
13493;SDS011;6819;50.886;4.332;2023-10-09T09:03:39;16.65;;;10.52;;
13493;SDS011;6819;50.886;4.332;2023-10-09T09:06:08;22.20;;;10.95;;
13493;SDS011;6819;50.886;4.332;2023-10-09T09:08:35;21.92;;;10.70;;
13493;SDS011;6819;50.886;4.332;2023-10-09T09:11:07;20.95;;;10.43;;
13493;SDS011;6819;50.886;4.332;2023-10-09T09:16:02;18.13;;;9.93;;
13493;SDS011;6819;50.886;4.332;2023-10-09T09:18:28;22.73;;;9.98;;
13493;SDS011;6819;50.886;4.332;2023-10-09T09:21:05;17.23;;;9.93;;
13493;SDS011;6819;50.886;4.332;2023-10-09T09:23:32;18.55;;;9.73;;
13493;SDS011;6819;50.886;4.332;2023-10-09T09:25:58;21.65;;;9.57;;
13493;SDS011;6819;50.886;4.332;2023-10-09T09:28:26;17.38;;;10.05;;
13493;SDS011;6819;50.886;4.332;2023-10-09T09:31:07;20.65;;;10.75;;
13493;SDS011;6819;50.886;4.332;2023-10-09T09:33:40;20.25;;;9.90;;
13493;SDS011;6819;50.886;4.332;2023-10-09T09:36:08;23.52;;;10.48;;
13493;SDS011;6819;50.886;4.332;2023-10-09T09:38:37;21.58;;;10.00;;
13493;SDS011;6819;50.886;4.332;2023-10-09T09:41:15;17.05;;;9.70;;
13493;SDS011;6819;50.886;4.332;2023-10-09T09:43:55;18.73;;;10.23;;
13493;SDS011;6819;50.886;4.332;2023-10-09T09:46:22;19.33;;;9.88;;
13493;SDS011;6819;50.886;4.332;2023-10-09T09:49:00;15.80;;;9.73;;
13493;SDS011;6819;50.886;4.332;2023-10-09T09:51:26;19.98;;;10.25;;
13493;SDS011;6819;50.886;4.332;2023-10-09T09:53:54;16.52;;;9.43;;
13493;SDS011;6819;50.886;4.332;2023-10-09T09:56:21;18.85;;;10.40;;
13493;SDS011;6819;50.886;4.332;2023-10-09T09:58:50;19.88;;;10.45;;
13493;SDS011;6819;50.886;4.332;2023-10-09T10:01:22;18.25;;;10.13;;
13493;SDS011;6819;50.886;4.332;2023-10-09T10:04:04;19.88;;;9.70;;
13493;SDS011;6819;50.886;4.332;2023-10-09T10:06:31;18.08;;;9.68;;
13493;SDS011;6819;50.886;4.332;2023-10-09T10:08:58;18.45;;;10.13;;
13493;SDS011;6819;50.886;4.332;2023-10-09T10:11:46;19.27;;;9.77;;
13493;SDS011;6819;50.886;4.332;2023-10-09T10:14:17;21.38;;;10.38;;
13493;SDS011;6819;50.886;4.332;2023-10-09T10:17:06;22.13;;;10.13;;
13493;SDS011;6819;50.886;4.332;2023-10-09T10:19:58;22.17;;;10.25;;
13493;SDS011;6819;50.886;4.332;2023-10-09T10:22:47;21.40;;;9.82;;
13493;SDS011;6819;50.886;4.332;2023-10-09T10:28:16;17.73;;;9.85;;
13493;SDS011;6819;50.886;4.332;2023-10-09T10:30:53;23.45;;;10.65;;
13493;SDS011;6819;50.886;4.332;2023-10-09T10:33:20;25.05;;;10.68;;
13493;SDS011;6819;50.886;4.332;2023-10-09T10:35:48;21.48;;;10.80;;
13493;SDS011;6819;50.886;4.332;2023-10-09T10:38:27;22.90;;;10.80;;
13493;SDS011;6819;50.886;4.332;2023-10-09T10:41:10;18.50;;;11.27;;
13493;SDS011;6819;50.886;4.332;2023-10-09T10:43:41;20.63;;;10.18;;
13493;SDS011;6819;50.886;4.332;2023-10-09T10:46:17;20.08;;;11.07;;
13493;SDS011;6819;50.886;4.332;2023-10-09T10:48:52;18.73;;;9.70;;
13493;SDS011;6819;50.886;4.332;2023-10-09T10:51:34;19.13;;;9.70;;
13493;SDS011;6819;50.886;4.332;2023-10-09T10:54:03;20.02;;;10.50;;
13493;SDS011;6819;50.886;4.332;2023-10-09T10:56:55;20.73;;;9.90;;
13493;SDS011;6819;50.886;4.332;2023-10-09T10:59:22;19.80;;;10.02;;
13493;SDS011;6819;50.886;4.332;2023-10-09T11:01:50;19.75;;;10.00;;
13493;SDS011;6819;50.886;4.332;2023-10-09T11:04:23;17.73;;;10.30;;
13493;SDS011;6819;50.886;4.332;2023-10-09T11:07:08;16.38;;;9.60;;
13493;SDS011;6819;50.886;4.332;2023-10-09T11:09:51;15.52;;;9.60;;
13493;SDS011;6819;50.886;4.332;2023-10-09T11:12:29;17.80;;;10.15;;
13493;SDS011;6819;50.886;4.332;2023-10-09T11:15:07;18.42;;;9.80;;
13493;SDS011;6819;50.886;4.332;2023-10-09T11:17:56;16.92;;;8.90;;
13493;SDS011;6819;50.886;4.332;2023-10-09T11:20:23;14.95;;;8.65;;
13493;SDS011;6819;50.886;4.332;2023-10-09T11:22:51;16.77;;;9.00;;
13493;SDS011;6819;50.886;4.332;2023-10-09T11:25:39;16.85;;;8.60;;
13493;SDS011;6819;50.886;4.332;2023-10-09T11:30:55;15.38;;;8.25;;
13493;SDS011;6819;50.886;4.332;2023-10-09T11:33:21;16.98;;;8.60;;
13493;SDS011;6819;50.886;4.332;2023-10-09T11:35:55;17.42;;;8.45;;
13493;SDS011;6819;50.886;4.332;2023-10-09T11:38:25;19.65;;;9.02;;
13493;SDS011;6819;50.886;4.332;2023-10-09T11:40:53;18.25;;;9.32;;
13493;SDS011;6819;50.886;4.332;2023-10-09T11:43:20;17.27;;;9.70;;
13493;SDS011;6819;50.886;4.332;2023-10-09T11:46:09;12.68;;;8.35;;
13493;SDS011;6819;50.886;4.332;2023-10-09T11:49:02;14.27;;;7.85;;
13493;SDS011;6819;50.886;4.332;2023-10-09T11:51:46;19.52;;;8.65;;
13493;SDS011;6819;50.886;4.332;2023-10-09T11:54:31;23.13;;;8.80;;
13493;SDS011;6819;50.886;4.332;2023-10-09T11:56:58;18.63;;;9.45;;
13493;SDS011;6819;50.886;4.332;2023-10-09T11:59:29;19.95;;;8.50;;
13493;SDS011;6819;50.886;4.332;2023-10-09T12:02:07;20.55;;;8.90;;
13493;SDS011;6819;50.886;4.332;2023-10-09T12:04:38;21.20;;;9.20;;
13493;SDS011;6819;50.886;4.332;2023-10-09T12:07:07;18.08;;;9.23;;
13493;SDS011;6819;50.886;4.332;2023-10-09T12:09:34;18.05;;;9.10;;
13493;SDS011;6819;50.886;4.332;2023-10-09T12:12:03;20.17;;;9.38;;
13493;SDS011;6819;50.886;4.332;2023-10-09T12:14:29;17.88;;;8.40;;
13493;SDS011;6819;50.886;4.332;2023-10-09T12:17:00;17.30;;;8.02;;
13493;SDS011;6819;50.886;4.332;2023-10-09T12:19:30;20.52;;;9.45;;
13493;SDS011;6819;50.886;4.332;2023-10-09T12:21:57;18.90;;;8.65;;
13493;SDS011;6819;50.886;4.332;2023-10-09T12:24:25;18.85;;;9.43;;
13493;SDS011;6819;50.886;4.332;2023-10-09T12:26:54;17.98;;;9.35;;
13493;SDS011;6819;50.886;4.332;2023-10-09T12:29:20;23.80;;;9.40;;
13493;SDS011;6819;50.886;4.332;2023-10-09T12:31:46;17.65;;;8.75;;
13493;SDS011;6819;50.886;4.332;2023-10-09T12:34:12;18.33;;;8.73;;
13493;SDS011;6819;50.886;4.332;2023-10-09T12:36:44;17.23;;;8.30;;
13493;SDS011;6819;50.886;4.332;2023-10-09T12:39:10;19.45;;;9.20;;
13493;SDS011;6819;50.886;4.332;2023-10-09T12:41:43;16.67;;;8.15;;
13493;SDS011;6819;50.886;4.332;2023-10-09T12:44:09;17.23;;;8.85;;
13493;SDS011;6819;50.886;4.332;2023-10-09T12:46:42;15.32;;;8.20;;
13493;SDS011;6819;50.886;4.332;2023-10-09T12:49:17;14.00;;;8.10;;
13493;SDS011;6819;50.886;4.332;2023-10-09T12:51:44;14.52;;;8.85;;
13493;SDS011;6819;50.886;4.332;2023-10-09T12:54:10;16.02;;;7.53;;
13493;SDS011;6819;50.886;4.332;2023-10-09T12:56:39;18.95;;;7.88;;
13493;SDS011;6819;50.886;4.332;2023-10-09T12:59:05;14.25;;;8.70;;
13493;SDS011;6819;50.886;4.332;2023-10-09T13:01:32;14.60;;;7.65;;
13493;SDS011;6819;50.886;4.332;2023-10-09T13:04:14;17.98;;;7.47;;
13493;SDS011;6819;50.886;4.332;2023-10-09T13:06:44;16.65;;;9.00;;
13493;SDS011;6819;50.886;4.332;2023-10-09T13:09:11;15.68;;;8.77;;
13493;SDS011;6819;50.886;4.332;2023-10-09T13:11:41;20.23;;;8.48;;
13493;SDS011;6819;50.886;4.332;2023-10-09T13:14:08;14.80;;;7.72;;
13493;SDS011;6819;50.886;4.332;2023-10-09T13:16:41;19.80;;;8.25;;
13493;SDS011;6819;50.886;4.332;2023-10-09T13:19:07;17.65;;;8.70;;
13493;SDS011;6819;50.886;4.332;2023-10-09T13:21:36;16.83;;;8.88;;
13493;SDS011;6819;50.886;4.332;2023-10-09T13:24:05;20.80;;;8.55;;
13493;SDS011;6819;50.886;4.332;2023-10-09T13:26:39;19.58;;;8.75;;
13493;SDS011;6819;50.886;4.332;2023-10-09T13:29:06;14.73;;;7.90;;
13493;SDS011;6819;50.886;4.332;2023-10-09T13:31:36;13.85;;;7.97;;
13493;SDS011;6819;50.886;4.332;2023-10-09T13:34:03;17.15;;;8.35;;
13493;SDS011;6819;50.886;4.332;2023-10-09T13:36:31;20.02;;;8.27;;
13493;SDS011;6819;50.886;4.332;2023-10-09T13:39:06;18.63;;;9.30;;
13493;SDS011;6819;50.886;4.332;2023-10-09T13:41:47;16.20;;;8.48;;
13493;SDS011;6819;50.886;4.332;2023-10-09T13:44:13;16.25;;;8.18;;
13493;SDS011;6819;50.886;4.332;2023-10-09T13:46:39;19.52;;;9.05;;
13493;SDS011;6819;50.886;4.332;2023-10-09T13:49:09;15.63;;;8.48;;
13493;SDS011;6819;50.886;4.332;2023-10-09T13:51:39;17.13;;;8.15;;
13493;SDS011;6819;50.886;4.332;2023-10-09T13:54:15;19.10;;;8.57;;
13493;SDS011;6819;50.886;4.332;2023-10-09T13:57:08;14.48;;;8.18;;
13493;SDS011;6819;50.886;4.332;2023-10-09T13:59:35;14.80;;;7.55;;
13493;SDS011;6819;50.886;4.332;2023-10-09T14:02:07;17.27;;;8.60;;
13493;SDS011;6819;50.886;4.332;2023-10-09T14:04:42;13.77;;;7.43;;
13493;SDS011;6819;50.886;4.332;2023-10-09T14:07:08;21.50;;;7.90;;
13493;SDS011;6819;50.886;4.332;2023-10-09T14:09:34;16.23;;;8.40;;
13493;SDS011;6819;50.886;4.332;2023-10-09T14:12:05;16.40;;;8.02;;
13493;SDS011;6819;50.886;4.332;2023-10-09T14:14:36;18.85;;;8.68;;
13493;SDS011;6819;50.886;4.332;2023-10-09T14:17:17;19.55;;;8.43;;
13493;SDS011;6819;50.886;4.332;2023-10-09T14:19:56;14.90;;;8.38;;
13493;SDS011;6819;50.886;4.332;2023-10-09T14:22:41;15.68;;;8.27;;
13493;SDS011;6819;50.886;4.332;2023-10-09T14:25:07;16.75;;;7.85;;
13493;SDS011;6819;50.886;4.332;2023-10-09T14:27:40;21.13;;;8.73;;
13493;SDS011;6819;50.886;4.332;2023-10-09T14:30:06;14.27;;;8.45;;
13493;SDS011;6819;50.886;4.332;2023-10-09T14:32:37;21.25;;;9.32;;
13493;SDS011;6819;50.886;4.332;2023-10-09T14:35:13;17.83;;;8.60;;
13493;SDS011;6819;50.886;4.332;2023-10-09T14:37:39;16.02;;;8.05;;
13493;SDS011;6819;50.886;4.332;2023-10-09T14:40:06;14.55;;;7.72;;
13493;SDS011;6819;50.886;4.332;2023-10-09T14:42:38;14.50;;;8.18;;
13493;SDS011;6819;50.886;4.332;2023-10-09T14:45:09;16.85;;;8.63;;
13493;SDS011;6819;50.886;4.332;2023-10-09T14:47:40;14.85;;;8.20;;
13493;SDS011;6819;50.886;4.332;2023-10-09T14:50:07;18.48;;;8.27;;
13493;SDS011;6819;50.886;4.332;2023-10-09T14:52:34;18.33;;;8.70;;
13493;SDS011;6819;50.886;4.332;2023-10-09T14:55:04;14.35;;;7.97;;
13493;SDS011;6819;50.886;4.332;2023-10-09T14:57:30;16.88;;;8.77;;
13493;SDS011;6819;50.886;4.332;2023-10-09T15:00:00;14.15;;;8.10;;
13493;SDS011;6819;50.886;4.332;2023-10-09T15:02:27;17.83;;;8.25;;
13493;SDS011;6819;50.886;4.332;2023-10-09T15:04:54;16.95;;;7.75;;
13493;SDS011;6819;50.886;4.332;2023-10-09T15:07:20;16.73;;;8.77;;
13493;SDS011;6819;50.886;4.332;2023-10-09T15:09:46;15.00;;;8.07;;
13493;SDS011;6819;50.886;4.332;2023-10-09T15:12:12;15.55;;;7.93;;
13493;SDS011;6819;50.886;4.332;2023-10-09T15:14:38;19.15;;;9.80;;
13493;SDS011;6819;50.886;4.332;2023-10-09T15:17:04;19.05;;;8.80;;
13493;SDS011;6819;50.886;4.332;2023-10-09T15:19:32;17.67;;;8.25;;
13493;SDS011;6819;50.886;4.332;2023-10-09T15:21:58;16.77;;;8.57;;
13493;SDS011;6819;50.886;4.332;2023-10-09T15:24:24;20.17;;;7.93;;
13493;SDS011;6819;50.886;4.332;2023-10-09T15:26:52;16.08;;;7.57;;
13493;SDS011;6819;50.886;4.332;2023-10-09T15:29:22;19.45;;;7.90;;
13493;SDS011;6819;50.886;4.332;2023-10-09T15:31:53;14.23;;;7.72;;
13493;SDS011;6819;50.886;4.332;2023-10-09T15:34:19;16.73;;;8.48;;
13493;SDS011;6819;50.886;4.332;2023-10-09T15:36:46;13.00;;;7.97;;
13493;SDS011;6819;50.886;4.332;2023-10-09T15:39:13;20.45;;;8.75;;
13493;SDS011;6819;50.886;4.332;2023-10-09T15:41:39;15.85;;;7.95;;